sensor_id;sensor_type;location;lat;lon;timestamp;noise_LAeq;noise_LA_min;noise_LA_max;noise_LA01;noise_LA95
66589;Laerm;53447;49.272;11.070;2023-09-18T00:01:35;46.69;37.58;64.08;;
66589;Laerm;53447;49.272;11.070;2023-09-18T00:04:00;42.33;36.55;48.91;;
66589;Laerm;53447;49.272;11.070;2023-09-18T00:06:25;40.90;35.82;45.66;;
66589;Laerm;53447;49.272;11.070;2023-09-18T00:08:50;42.24;37.45;46.70;;
66589;Laerm;53447;49.272;11.070;2023-09-18T00:11:16;42.30;37.96;49.58;;
66589;Laerm;53447;49.272;11.070;2023-09-18T00:13:41;42.64;39.39;52.05;;
66589;Laerm;53447;49.272;11.070;2023-09-18T00:16:06;42.29;37.84;46.07;;
66589;Laerm;53447;49.272;11.070;2023-09-18T00:18:31;41.57;37.96;43.87;;
66589;Laerm;53447;49.272;11.070;2023-09-18T00:20:57;41.69;36.38;44.49;;
66589;Laerm;53447;49.272;11.070;2023-09-18T00:23:23;41.90;38.63;48.60;;
66589;Laerm;53447;49.272;11.070;2023-09-18T00:25:48;41.85;37.02;45.68;;
66589;Laerm;53447;49.272;11.070;2023-09-18T00:28:13;40.98;36.55;43.40;;
66589;Laerm;53447;49.272;11.070;2023-09-18T00:30:42;41.88;37.31;45.96;;
66589;Laerm;53447;49.272;11.070;2023-09-18T00:33:08;40.58;37.96;42.40;;
66589;Laerm;53447;49.272;11.070;2023-09-18T00:35:33;41.26;37.17;46.05;;
66589;Laerm;53447;49.272;11.070;2023-09-18T00:37:58;40.89;36.87;44.39;;
66589;Laerm;53447;49.272;11.070;2023-09-18T00:40:23;40.85;36.55;45.56;;
66589;Laerm;53447;49.272;11.070;2023-09-18T00:42:49;41.58;36.87;45.16;;
66589;Laerm;53447;49.272;11.070;2023-09-18T00:45:14;41.22;36.55;49.05;;
66589;Laerm;53447;49.272;11.070;2023-09-18T00:47:39;41.50;36.55;43.26;;
66589;Laerm;53447;49.272;11.070;2023-09-18T00:50:05;40.37;34.95;42.40;;
66589;Laerm;53447;49.272;11.070;2023-09-18T00:52:32;40.26;35.82;42.13;;
66589;Laerm;53447;49.272;11.070;2023-09-18T00:54:58;41.21;37.24;44.95;;
66589;Laerm;53447;49.272;11.070;2023-09-18T00:57:25;53.09;39.03;67.52;;
66589;Laerm;53447;49.272;11.070;2023-09-18T00:59:50;41.13;36.55;43.33;;
66589;Laerm;53447;49.272;11.070;2023-09-18T01:02:15;41.86;38.08;53.14;;
66589;Laerm;53447;49.272;11.070;2023-09-18T01:04:41;40.85;36.55;48.60;;
66589;Laerm;53447;49.272;11.070;2023-09-18T01:07:09;41.79;38.68;43.83;;
66589;Laerm;53447;49.272;11.070;2023-09-18T01:09:34;41.57;37.17;43.64;;
66589;Laerm;53447;49.272;11.070;2023-09-18T01:16:59;41.40;38.42;43.57;;
66589;Laerm;53447;49.272;11.070;2023-09-18T01:22:08;41.55;38.83;43.70;;
66589;Laerm;53447;49.272;11.070;2023-09-18T01:24:35;42.72;39.48;44.90;;
66589;Laerm;53447;49.272;11.070;2023-09-18T01:27:00;42.37;39.96;45.12;;
66589;Laerm;53447;49.272;11.070;2023-09-18T01:29:26;41.95;38.83;43.89;;
66589;Laerm;53447;49.272;11.070;2023-09-18T01:31:51;41.00;35.82;43.64;;
66589;Laerm;53447;49.272;11.070;2023-09-18T01:34:18;41.84;38.68;45.47;;
66589;Laerm;53447;49.272;11.070;2023-09-18T01:36:45;49.62;39.21;62.79;;
66589;Laerm;53447;49.272;11.070;2023-09-18T01:39:11;41.25;37.02;44.47;;
66589;Laerm;53447;49.272;11.070;2023-09-18T01:41:37;41.49;37.45;56.80;;
66589;Laerm;53447;49.272;11.070;2023-09-18T01:44:03;42.20;38.20;44.41;;
66589;Laerm;53447;49.272;11.070;2023-09-18T01:46:29;42.46;38.83;49.81;;
66589;Laerm;53447;49.272;11.070;2023-09-18T01:48:57;42.92;40.39;44.78;;
66589;Laerm;53447;49.272;11.070;2023-09-18T01:51:22;42.22;37.96;44.25;;
66589;Laerm;53447;49.272;11.070;2023-09-18T01:53:47;42.10;39.21;44.68;;
66589;Laerm;53447;49.272;11.070;2023-09-18T01:56:13;41.48;38.42;43.40;;
66589;Laerm;53447;49.272;11.070;2023-09-18T01:58:38;42.49;39.12;44.73;;
66589;Laerm;53447;49.272;11.070;2023-09-18T02:01:03;42.47;38.31;46.26;;
66589;Laerm;53447;49.272;11.070;2023-09-18T02:03:29;42.04;38.20;44.55;;
66589;Laerm;53447;49.272;11.070;2023-09-18T02:05:54;41.84;38.93;44.01;;
66589;Laerm;53447;49.272;11.070;2023-09-18T02:08:19;41.73;36.38;43.54;;
66589;Laerm;53447;49.272;11.070;2023-09-18T02:10:45;41.45;39.03;48.79;;
66589;Laerm;53447;49.272;11.070;2023-09-18T02:13:10;41.94;39.91;44.10;;
66589;Laerm;53447;49.272;11.070;2023-09-18T02:15:36;41.67;38.83;43.57;;
66589;Laerm;53447;49.272;11.070;2023-09-18T02:18:02;42.23;38.93;44.01;;
66589;Laerm;53447;49.272;11.070;2023-09-18T02:20:27;41.98;38.83;43.70;;
66589;Laerm;53447;49.272;11.070;2023-09-18T02:22:52;41.44;38.53;43.44;;
66589;Laerm;53447;49.272;11.070;2023-09-18T02:25:17;42.24;37.58;44.25;;
66589;Laerm;53447;49.272;11.070;2023-09-18T02:27:43;42.55;39.56;56.24;;
66589;Laerm;53447;49.272;11.070;2023-09-18T02:30:08;41.57;39.30;48.00;;
66589;Laerm;53447;49.272;11.070;2023-09-18T02:32:35;41.83;39.12;43.67;;
66589;Laerm;53447;49.272;11.070;2023-09-18T02:35:01;42.11;39.72;43.73;;
66589;Laerm;53447;49.272;11.070;2023-09-18T02:37:26;43.60;40.11;51.30;;
66589;Laerm;53447;49.272;11.070;2023-09-18T02:39:54;42.39;40.46;44.63;;
66589;Laerm;53447;49.272;11.070;2023-09-18T02:42:19;42.52;40.39;46.20;;
66589;Laerm;53447;49.272;11.070;2023-09-18T02:44:44;42.73;40.79;46.84;;
66589;Laerm;53447;49.272;11.070;2023-09-18T02:47:09;42.37;40.11;45.32;;
66589;Laerm;53447;49.272;11.070;2023-09-18T02:49:34;42.83;40.66;45.45;;
66589;Laerm;53447;49.272;11.070;2023-09-18T02:52:00;42.94;40.66;44.98;;
66589;Laerm;53447;49.272;11.070;2023-09-18T02:54:25;42.22;40.18;43.70;;
66589;Laerm;53447;49.272;11.070;2023-09-18T02:56:50;42.25;39.56;45.58;;
66589;Laerm;53447;49.272;11.070;2023-09-18T02:59:15;41.83;39.03;44.10;;
66589;Laerm;53447;49.272;11.070;2023-09-18T03:01:40;41.65;38.53;43.73;;
66589;Laerm;53447;49.272;11.070;2023-09-18T03:04:06;47.49;39.12;65.45;;
66589;Laerm;53447;49.272;11.070;2023-09-18T03:06:32;42.28;40.39;44.16;;
66589;Laerm;53447;49.272;11.070;2023-09-18T03:08:57;42.40;39.64;45.32;;
66589;Laerm;53447;49.272;11.070;2023-09-18T03:11:22;42.91;40.66;49.94;;
66589;Laerm;53447;49.272;11.070;2023-09-18T03:13:52;43.58;40.91;58.06;;
66589;Laerm;53447;49.272;11.070;2023-09-18T03:16:17;43.05;41.26;45.92;;
66589;Laerm;53447;49.272;11.070;2023-09-18T03:18:42;44.29;40.53;53.21;;
66589;Laerm;53447;49.272;11.070;2023-09-18T03:21:07;42.58;40.32;44.95;;
66589;Laerm;53447;49.272;11.070;2023-09-18T03:23:33;42.62;40.66;44.41;;
66589;Laerm;53447;49.272;11.070;2023-09-18T03:25:58;42.61;40.25;44.25;;
66589;Laerm;53447;49.272;11.070;2023-09-18T03:28:24;42.51;40.66;44.33;;
66589;Laerm;53447;49.272;11.070;2023-09-18T03:30:49;42.81;39.80;44.19;;
66589;Laerm;53447;49.272;11.070;2023-09-18T03:33:15;43.19;41.26;48.79;;
66589;Laerm;53447;49.272;11.070;2023-09-18T03:35:49;42.95;40.97;45.19;;
66589;Laerm;53447;49.272;11.070;2023-09-18T03:38:14;42.96;41.38;44.95;;
66589;Laerm;53447;49.272;11.070;2023-09-18T03:40:40;42.89;40.91;47.44;;
66589;Laerm;53447;49.272;11.070;2023-09-18T03:43:06;42.72;40.72;43.95;;
66589;Laerm;53447;49.272;11.070;2023-09-18T03:45:32;42.75;40.39;44.95;;
66589;Laerm;53447;49.272;11.070;2023-09-18T03:47:57;42.64;40.72;44.52;;
66589;Laerm;53447;49.272;11.070;2023-09-18T03:50:22;42.75;40.79;45.26;;
66589;Laerm;53447;49.272;11.070;2023-09-18T03:52:47;52.82;41.64;69.77;;
66589;Laerm;53447;49.272;11.070;2023-09-18T03:55:12;42.92;41.15;44.65;;
66589;Laerm;53447;49.272;11.070;2023-09-18T03:57:38;42.72;40.66;44.33;;
66589;Laerm;53447;49.272;11.070;2023-09-18T04:00:04;44.58;41.32;55.31;;
66589;Laerm;53447;49.272;11.070;2023-09-18T04:02:30;52.05;42.13;66.90;;
66589;Laerm;53447;49.272;11.070;2023-09-18T04:04:55;42.95;40.79;44.88;;
66589;Laerm;53447;49.272;11.070;2023-09-18T04:07:20;42.85;40.85;45.32;;
66589;Laerm;53447;49.272;11.070;2023-09-18T04:09:46;42.58;39.88;46.43;;
66589;Laerm;53447;49.272;11.070;2023-09-18T04:12:11;42.89;40.72;45.68;;
66589;Laerm;53447;49.272;11.070;2023-09-18T04:14:37;42.73;40.97;44.36;;
66589;Laerm;53447;49.272;11.070;2023-09-18T04:17:02;50.03;40.97;67.78;;
66589;Laerm;53447;49.272;11.070;2023-09-18T04:19:28;42.78;40.39;45.09;;
66589;Laerm;53447;49.272;11.070;2023-09-18T04:21:53;42.79;40.53;50.25;;
66589;Laerm;53447;49.272;11.070;2023-09-18T04:24:18;43.05;41.09;47.46;;
66589;Laerm;53447;49.272;11.070;2023-09-18T04:26:43;51.97;41.03;68.66;;
66589;Laerm;53447;49.272;11.070;2023-09-18T04:29:09;49.05;41.38;66.24;;
66589;Laerm;53447;49.272;11.070;2023-09-18T04:31:34;43.30;41.38;49.09;;
66589;Laerm;53447;49.272;11.070;2023-09-18T04:33:59;50.18;40.85;68.25;;
66589;Laerm;53447;49.272;11.070;2023-09-18T04:36:25;43.00;40.46;50.57;;
66589;Laerm;53447;49.272;11.070;2023-09-18T04:38:50;48.42;40.59;64.51;;
66589;Laerm;53447;49.272;11.070;2023-09-18T04:41:15;42.24;38.42;44.98;;
66589;Laerm;53447;49.272;11.070;2023-09-18T04:43:41;55.50;40.25;71.04;;
66589;Laerm;53447;49.272;11.070;2023-09-18T04:46:09;43.23;40.72;59.09;;
66589;Laerm;53447;49.272;11.070;2023-09-18T04:48:34;45.28;41.15;70.63;;
66589;Laerm;53447;49.272;11.070;2023-09-18T04:51:00;42.92;41.03;51.74;;
66589;Laerm;53447;49.272;11.070;2023-09-18T04:53:26;43.86;40.97;55.55;;
66589;Laerm;53447;49.272;11.070;2023-09-18T04:55:52;43.32;40.91;56.28;;
66589;Laerm;53447;49.272;11.070;2023-09-18T04:58:18;49.29;40.59;66.51;;
66589;Laerm;53447;49.272;11.070;2023-09-18T05:00:43;49.56;40.46;68.30;;
66589;Laerm;53447;49.272;11.070;2023-09-18T05:03:09;47.56;40.79;64.80;;
66589;Laerm;53447;49.272;11.070;2023-09-18T05:05:34;48.32;40.91;65.75;;
66589;Laerm;53447;49.272;11.070;2023-09-18T05:08:01;43.44;41.15;53.15;;
66589;Laerm;53447;49.272;11.070;2023-09-18T05:10:26;43.39;40.85;54.35;;
66589;Laerm;53447;49.272;11.070;2023-09-18T05:12:51;43.38;41.03;51.77;;
66589;Laerm;53447;49.272;11.070;2023-09-18T05:15:23;44.30;41.15;59.35;;
66589;Laerm;53447;49.272;11.070;2023-09-18T05:17:50;43.80;40.85;57.21;;
66589;Laerm;53447;49.272;11.070;2023-09-18T05:20:17;49.96;41.74;65.94;;
66589;Laerm;53447;49.272;11.070;2023-09-18T05:22:43;51.78;41.48;71.26;;
66589;Laerm;53447;49.272;11.070;2023-09-18T05:25:11;51.82;41.21;73.31;;
66589;Laerm;53447;49.272;11.070;2023-09-18T05:27:37;49.59;40.59;68.21;;
66589;Laerm;53447;49.272;11.070;2023-09-18T05:30:13;42.19;40.11;47.53;;
66589;Laerm;53447;49.272;11.070;2023-09-18T05:32:40;47.94;40.32;65.92;;
66589;Laerm;53447;49.272;11.070;2023-09-18T05:35:05;48.09;39.30;67.19;;
66589;Laerm;53447;49.272;11.070;2023-09-18T05:37:32;42.22;40.25;47.71;;
66589;Laerm;53447;49.272;11.070;2023-09-18T05:39:57;42.22;39.88;54.28;;
66589;Laerm;53447;49.272;11.070;2023-09-18T05:42:22;51.05;39.64;69.09;;
66589;Laerm;53447;49.272;11.070;2023-09-18T05:44:47;42.04;39.96;44.33;;
66589;Laerm;53447;49.272;11.070;2023-09-18T05:47:13;57.33;40.03;77.77;;
66589;Laerm;53447;49.272;11.070;2023-09-18T05:49:38;48.78;40.18;65.54;;
66589;Laerm;53447;49.272;11.070;2023-09-18T05:52:03;42.19;39.39;55.53;;
66589;Laerm;53447;49.272;11.070;2023-09-18T05:54:28;50.25;39.96;68.74;;
66589;Laerm;53447;49.272;11.070;2023-09-18T05:56:54;50.22;40.39;68.59;;
66589;Laerm;53447;49.272;11.070;2023-09-18T05:59:19;51.08;40.53;67.04;;
66589;Laerm;53447;49.272;11.070;2023-09-18T06:01:45;52.90;39.96;69.12;;
66589;Laerm;53447;49.272;11.070;2023-09-18T06:04:10;47.47;40.03;65.05;;
66589;Laerm;53447;49.272;11.070;2023-09-18T06:06:35;42.30;40.03;53.63;;
66589;Laerm;53447;49.272;11.070;2023-09-18T06:09:01;56.05;40.11;73.93;;
66589;Laerm;53447;49.272;11.070;2023-09-18T06:11:26;50.85;39.96;71.24;;
66589;Laerm;53447;49.272;11.070;2023-09-18T06:13:51;50.68;40.66;66.75;;
66589;Laerm;53447;49.272;11.070;2023-09-18T06:16:16;49.47;40.18;67.80;;
66589;Laerm;53447;49.272;11.070;2023-09-18T06:18:41;50.34;39.30;69.20;;
66589;Laerm;53447;49.272;11.070;2023-09-18T06:21:07;49.65;39.03;65.68;;
66589;Laerm;53447;49.272;11.070;2023-09-18T06:23:32;52.02;39.96;65.73;;
66589;Laerm;53447;49.272;11.070;2023-09-18T06:25:58;50.72;40.11;68.98;;
66589;Laerm;53447;49.272;11.070;2023-09-18T06:28:24;54.41;40.46;71.20;;
66589;Laerm;53447;49.272;11.070;2023-09-18T06:30:49;43.32;40.32;67.91;;
66589;Laerm;53447;49.272;11.070;2023-09-18T06:33:14;48.44;39.30;67.11;;
66589;Laerm;53447;49.272;11.070;2023-09-18T06:35:40;47.52;40.18;62.22;;
66589;Laerm;53447;49.272;11.070;2023-09-18T06:38:06;42.08;40.03;54.80;;
66589;Laerm;53447;49.272;11.070;2023-09-18T06:40:32;55.61;39.98;74.62;;
66589;Laerm;53447;49.272;11.070;2023-09-18T06:43:00;53.58;39.30;68.91;;
66589;Laerm;53447;49.272;11.070;2023-09-18T06:45:25;46.07;39.39;62.67;;
66589;Laerm;53447;49.272;11.070;2023-09-18T06:47:51;44.38;39.88;61.39;;
66589;Laerm;53447;49.272;11.070;2023-09-18T06:50:16;46.10;40.39;73.89;;
66589;Laerm;53447;49.272;11.070;2023-09-18T06:52:43;44.65;39.96;62.32;;
66589;Laerm;53447;49.272;11.070;2023-09-18T06:55:08;49.90;38.83;68.56;;
66589;Laerm;53447;49.272;11.070;2023-09-18T06:57:34;42.61;39.64;53.93;;
66589;Laerm;53447;49.272;11.070;2023-09-18T06:59:59;46.89;39.64;61.69;;
66589;Laerm;53447;49.272;11.070;2023-09-18T07:02:24;53.06;39.30;69.71;;
66589;Laerm;53447;49.272;11.070;2023-09-18T07:04:50;41.95;39.64;55.13;;
66589;Laerm;53447;49.272;11.070;2023-09-18T07:07:18;53.56;39.39;70.71;;
66589;Laerm;53447;49.272;11.070;2023-09-18T07:09:50;48.43;39.72;66.31;;
66589;Laerm;53447;49.272;11.070;2023-09-18T07:12:15;43.42;39.39;62.57;;
66589;Laerm;53447;49.272;11.070;2023-09-18T07:14:40;42.62;39.64;52.37;;
66589;Laerm;53447;49.272;11.070;2023-09-18T07:17:06;51.44;39.56;69.63;;
66589;Laerm;53447;49.272;11.070;2023-09-18T07:19:31;41.84;39.12;53.37;;
66589;Laerm;53447;49.272;11.070;2023-09-18T07:21:57;46.88;38.93;66.67;;
66589;Laerm;53447;49.272;11.070;2023-09-18T07:24:22;46.99;39.39;62.66;;
66589;Laerm;53447;49.272;11.070;2023-09-18T07:26:47;44.49;39.72;61.73;;
66589;Laerm;53447;49.272;11.070;2023-09-18T07:29:13;44.07;39.72;64.25;;
66589;Laerm;53447;49.272;11.070;2023-09-18T07:31:40;47.81;39.56;65.14;;
66589;Laerm;53447;49.272;11.070;2023-09-18T07:34:05;53.38;40.03;69.32;;
66589;Laerm;53447;49.272;11.070;2023-09-18T07:36:30;41.55;39.03;48.32;;
66589;Laerm;53447;49.272;11.070;2023-09-18T07:38:55;44.53;38.53;61.61;;
66589;Laerm;53447;49.272;11.070;2023-09-18T07:41:21;54.40;38.63;74.62;;
66589;Laerm;53447;49.272;11.070;2023-09-18T07:43:47;51.32;38.31;70.41;;
66589;Laerm;53447;49.272;11.070;2023-09-18T07:46:12;41.74;39.56;50.66;;
66589;Laerm;53447;49.272;11.070;2023-09-18T07:48:38;42.86;39.64;53.75;;
66589;Laerm;53447;49.272;11.070;2023-09-18T07:51:03;42.17;38.28;65.32;;
66589;Laerm;53447;49.272;11.070;2023-09-18T07:53:28;53.76;39.38;73.83;;
66589;Laerm;53447;49.272;11.070;2023-09-18T07:55:56;45.47;39.03;65.03;;
66589;Laerm;53447;49.272;11.070;2023-09-18T07:58:23;45.37;37.84;67.11;;
66589;Laerm;53447;49.272;11.070;2023-09-18T08:00:54;41.92;38.31;62.65;;
66589;Laerm;53447;49.272;11.070;2023-09-18T08:03:20;48.04;38.73;75.67;;
66589;Laerm;53447;49.272;11.070;2023-09-18T08:05:49;51.54;40.79;65.98;;
66589;Laerm;53447;49.272;11.070;2023-09-18T08:08:14;50.19;40.85;72.61;;
66589;Laerm;53447;49.272;11.070;2023-09-18T08:10:39;46.22;40.11;68.63;;
66589;Laerm;53447;49.272;11.070;2023-09-18T08:13:05;44.45;39.39;62.17;;
66589;Laerm;53447;49.272;11.070;2023-09-18T08:15:30;49.41;38.42;80.31;;
66589;Laerm;53447;49.272;11.070;2023-09-18T08:17:55;44.57;38.08;64.90;;
66589;Laerm;53447;49.272;11.070;2023-09-18T08:20:21;50.56;39.48;67.97;;
66589;Laerm;53447;49.272;11.070;2023-09-18T08:22:46;47.51;40.85;64.29;;
66589;Laerm;53447;49.272;11.070;2023-09-18T08:25:13;48.62;39.80;67.11;;
66589;Laerm;53447;49.272;11.070;2023-09-18T08:27:39;45.54;40.11;61.11;;
66589;Laerm;53447;49.272;11.070;2023-09-18T08:30:09;46.35;40.11;61.17;;
66589;Laerm;53447;49.272;11.070;2023-09-18T08:32:35;42.89;37.71;63.86;;
66589;Laerm;53447;49.272;11.070;2023-09-18T08:35:00;44.03;38.73;66.35;;
66589;Laerm;53447;49.272;11.070;2023-09-18T08:37:27;53.11;40.03;73.99;;
66589;Laerm;53447;49.272;11.070;2023-09-18T08:39:53;41.76;39.03;52.98;;
66589;Laerm;53447;49.272;11.070;2023-09-18T08:42:19;42.59;38.93;55.97;;
66589;Laerm;53447;49.272;11.070;2023-09-18T08:44:45;44.91;39.30;58.86;;
66589;Laerm;53447;49.272;11.070;2023-09-18T08:47:13;43.45;38.31;66.68;;
66589;Laerm;53447;49.272;11.070;2023-09-18T08:49:39;53.56;38.63;72.07;;
66589;Laerm;53447;49.272;11.070;2023-09-18T08:52:05;44.24;39.56;63.69;;
66589;Laerm;53447;49.272;11.070;2023-09-18T08:54:31;47.87;39.56;63.23;;
66589;Laerm;53447;49.272;11.070;2023-09-18T08:56:58;52.62;39.72;74.50;;
66589;Laerm;53447;49.272;11.070;2023-09-18T08:59:23;43.84;38.31;64.70;;
66589;Laerm;53447;49.272;11.070;2023-09-18T09:01:50;47.89;39.48;81.70;;
66589;Laerm;53447;49.272;11.070;2023-09-18T09:04:15;55.70;39.21;84.74;;
66589;Laerm;53447;49.272;11.070;2023-09-18T09:06:40;52.01;38.93;66.40;;
66589;Laerm;53447;49.272;11.070;2023-09-18T09:09:06;59.05;40.18;78.81;;
66589;Laerm;53447;49.272;11.070;2023-09-18T09:11:32;45.59;38.31;68.49;;
66589;Laerm;53447;49.272;11.070;2023-09-18T09:14:11;44.70;39.56;71.48;;
66589;Laerm;53447;49.272;11.070;2023-09-18T09:16:38;54.02;38.42;89.29;;
66589;Laerm;53447;49.272;11.070;2023-09-18T09:19:04;43.81;38.83;60.58;;
66589;Laerm;53447;49.272;11.070;2023-09-18T09:21:40;49.08;35.82;66.84;;
66589;Laerm;53447;49.272;11.070;2023-09-18T09:24:05;52.61;40.25;71.56;;
66589;Laerm;53447;49.272;11.070;2023-09-18T09:26:31;49.50;38.83;66.51;;
66589;Laerm;53447;49.272;11.070;2023-09-18T09:28:56;41.58;38.07;52.59;;
66589;Laerm;53447;49.272;11.070;2023-09-18T09:33:50;41.59;37.96;61.70;;
66589;Laerm;53447;49.272;11.070;2023-09-18T09:36:18;50.97;38.20;65.70;;
66589;Laerm;53447;49.272;11.070;2023-09-18T09:38:43;44.43;37.02;61.37;;
66589;Laerm;53447;49.272;11.070;2023-09-18T09:41:12;44.51;37.31;66.36;;
66589;Laerm;53447;49.272;11.070;2023-09-18T09:43:38;42.62;38.08;59.02;;
66589;Laerm;53447;49.272;11.070;2023-09-18T09:46:06;47.40;39.96;70.51;;
66589;Laerm;53447;49.272;11.070;2023-09-18T09:48:33;44.80;39.72;59.48;;
66589;Laerm;53447;49.272;11.070;2023-09-18T09:50:59;50.59;39.64;65.69;;
66589;Laerm;53447;49.272;11.070;2023-09-18T09:56:13;44.33;40.18;55.47;;
66589;Laerm;53447;49.272;11.070;2023-09-18T09:58:39;49.53;39.12;77.02;;
66589;Laerm;53447;49.272;11.070;2023-09-18T10:01:09;49.19;40.18;66.27;;
66589;Laerm;53447;49.272;11.070;2023-09-18T10:03:36;45.78;39.03;58.75;;
66589;Laerm;53447;49.272;11.070;2023-09-18T10:06:03;46.36;38.18;64.88;;
66589;Laerm;53447;49.272;11.070;2023-09-18T10:08:29;44.90;38.93;70.02;;
66589;Laerm;53447;49.272;11.070;2023-09-18T10:10:56;44.64;37.45;69.67;;
66589;Laerm;53447;49.272;11.070;2023-09-18T10:14:07;48.00;40.03;66.89;;
66589;Laerm;53447;49.272;11.070;2023-09-18T10:16:13;51.52;39.88;65.72;;
66589;Laerm;53447;49.272;11.070;2023-09-18T10:18:56;50.05;39.03;68.73;;
66589;Laerm;53447;49.272;11.070;2023-09-18T10:26:25;46.21;38.53;66.46;;
66589;Laerm;53447;49.272;11.070;2023-09-18T10:28:54;42.23;38.07;58.96;;
66589;Laerm;53447;49.272;11.070;2023-09-18T10:31:23;42.75;37.58;65.36;;
66589;Laerm;53447;49.272;11.070;2023-09-18T10:33:48;47.14;39.03;68.09;;
66589;Laerm;53447;49.272;11.070;2023-09-18T10:39:18;49.28;39.64;70.07;;
66589;Laerm;53447;49.272;11.070;2023-09-18T10:41:51;55.17;38.93;78.09;;
66589;Laerm;53447;49.272;11.070;2023-09-18T10:44:16;53.30;38.20;73.65;;
66589;Laerm;53447;49.272;11.070;2023-09-18T10:46:48;53.16;38.63;73.12;;
66589;Laerm;53447;49.272;11.070;2023-09-18T10:49:14;52.37;39.39;70.05;;
66589;Laerm;53447;49.272;11.070;2023-09-18T10:51:40;58.25;40.03;81.81;;
66589;Laerm;53447;49.272;11.070;2023-09-18T10:54:07;49.49;39.88;70.10;;
66589;Laerm;53447;49.272;11.070;2023-09-18T10:56:33;48.27;41.45;64.34;;
66589;Laerm;53447;49.272;11.070;2023-09-18T10:58:59;48.31;38.83;66.07;;
66589;Laerm;53447;49.272;11.070;2023-09-18T11:01:25;44.02;38.93;59.25;;
66589;Laerm;53447;49.272;11.070;2023-09-18T11:03:52;51.46;38.42;70.57;;
66589;Laerm;53447;49.272;11.070;2023-09-18T11:06:17;51.19;38.20;68.22;;
66589;Laerm;53447;49.272;11.070;2023-09-18T11:08:46;49.32;38.20;68.01;;
66589;Laerm;53447;49.272;11.070;2023-09-18T11:11:13;43.91;37.96;72.21;;
66589;Laerm;53447;49.272;11.070;2023-09-18T11:13:45;42.33;37.58;54.94;;
66589;Laerm;53447;49.272;11.070;2023-09-18T11:18:52;42.35;39.39;48.97;;
66589;Laerm;53447;49.272;11.070;2023-09-18T11:21:17;42.29;37.45;57.94;;
66589;Laerm;53447;49.272;11.070;2023-09-18T11:23:43;48.72;38.42;65.83;;
66589;Laerm;53447;49.272;11.070;2023-09-18T11:26:09;50.90;38.20;69.04;;
66589;Laerm;53447;49.272;11.070;2023-09-18T11:28:34;55.41;39.56;69.90;;
66589;Laerm;53447;49.272;11.070;2023-09-18T11:31:00;55.08;37.17;71.71;;
66589;Laerm;53447;49.272;11.070;2023-09-18T11:33:29;44.15;38.83;62.62;;
66589;Laerm;53447;49.272;11.070;2023-09-18T11:35:55;44.36;39.03;67.33;;
66589;Laerm;53447;49.272;11.070;2023-09-18T11:38:21;49.13;39.48;66.06;;
66589;Laerm;53447;49.272;11.070;2023-09-18T11:40:48;43.15;39.03;68.51;;
66589;Laerm;53447;49.272;11.070;2023-09-18T11:43:21;41.74;37.84;51.43;;
66589;Laerm;53447;49.272;11.070;2023-09-18T11:45:57;43.44;37.71;61.11;;
66589;Laerm;53447;49.272;11.070;2023-09-18T11:48:23;43.92;38.08;60.06;;
66589;Laerm;53447;49.272;11.070;2023-09-18T11:50:51;52.79;37.71;69.47;;
66589;Laerm;53447;49.272;11.070;2023-09-18T11:53:17;48.34;37.58;64.73;;
66589;Laerm;53447;49.272;11.070;2023-09-18T11:55:43;55.04;39.80;72.04;;
66589;Laerm;53447;49.272;11.070;2023-09-18T11:58:08;54.18;39.30;70.25;;
66589;Laerm;53447;49.272;11.070;2023-09-18T12:00:34;49.09;39.30;67.35;;
66589;Laerm;53447;49.272;11.070;2023-09-18T12:03:13;63.47;38.31;83.35;;
66589;Laerm;53447;49.272;11.070;2023-09-18T12:05:38;54.83;37.96;71.51;;
66589;Laerm;53447;49.272;11.070;2023-09-18T12:08:03;50.70;40.25;67.77;;
66589;Laerm;53447;49.272;11.070;2023-09-18T12:10:29;43.26;39.96;56.44;;
66589;Laerm;53447;49.272;11.070;2023-09-18T12:12:54;43.76;39.12;60.86;;
66589;Laerm;53447;49.272;11.070;2023-09-18T12:15:19;53.62;40.66;72.48;;
66589;Laerm;53447;49.272;11.070;2023-09-18T12:17:48;51.68;40.53;70.43;;
66589;Laerm;53447;49.272;11.070;2023-09-18T12:20:14;51.06;41.99;67.54;;
66589;Laerm;53447;49.272;11.070;2023-09-18T12:22:40;55.86;40.79;74.52;;
66589;Laerm;53447;49.272;11.070;2023-09-18T12:27:35;49.34;40.91;66.75;;
66589;Laerm;53447;49.272;11.070;2023-09-18T12:30:01;43.68;40.85;53.31;;
66589;Laerm;53447;49.272;11.070;2023-09-18T12:32:26;55.81;39.39;72.79;;
66589;Laerm;53447;49.272;11.070;2023-09-18T12:34:51;44.41;40.53;58.35;;
66589;Laerm;53447;49.272;11.070;2023-09-18T12:37:19;48.87;42.89;62.91;;
66589;Laerm;53447;49.272;11.070;2023-09-18T12:39:45;47.60;43.26;58.42;;
66589;Laerm;53447;49.272;11.070;2023-09-18T12:42:10;48.77;42.65;59.57;;
66589;Laerm;53447;49.272;11.070;2023-09-18T12:44:35;45.10;42.04;56.13;;
66589;Laerm;53447;49.272;11.070;2023-09-18T12:47:00;47.12;43.19;60.82;;
66589;Laerm;53447;49.272;11.070;2023-09-18T12:49:26;53.87;43.12;73.14;;
66589;Laerm;53447;49.272;11.070;2023-09-18T12:54:35;44.20;40.59;57.34;;
66589;Laerm;53447;49.272;11.070;2023-09-18T12:57:01;56.25;40.56;72.88;;
66589;Laerm;53447;49.272;11.070;2023-09-18T12:59:32;53.97;39.29;72.97;;
66589;Laerm;53447;49.272;11.070;2023-09-18T13:01:58;41.40;38.73;51.79;;
66589;Laerm;53447;49.272;11.070;2023-09-18T13:04:24;43.92;39.39;61.96;;
66589;Laerm;53447;49.272;11.070;2023-09-18T13:07:02;56.98;40.18;72.17;;
66589;Laerm;53447;49.272;11.070;2023-09-18T13:09:27;41.60;38.93;49.27;;
66589;Laerm;53447;49.272;11.070;2023-09-18T13:11:55;47.63;39.64;59.51;;
66589;Laerm;53447;49.272;11.070;2023-09-18T13:14:20;44.46;40.18;66.07;;
66589;Laerm;53447;49.272;11.070;2023-09-18T13:16:45;45.85;39.96;70.08;;
66589;Laerm;53447;49.272;11.070;2023-09-18T13:19:10;47.92;41.15;66.27;;
66589;Laerm;53447;49.272;11.070;2023-09-18T13:21:36;50.81;43.95;64.34;;
66589;Laerm;53447;49.272;11.070;2023-09-18T13:24:05;53.74;41.09;70.32;;
66589;Laerm;53447;49.272;11.070;2023-09-18T13:26:30;43.66;40.59;55.34;;
66589;Laerm;53447;49.272;11.070;2023-09-18T13:28:55;43.48;40.66;52.51;;
66589;Laerm;53447;49.272;11.070;2023-09-18T13:31:20;47.89;40.53;62.36;;
66589;Laerm;53447;49.272;11.070;2023-09-18T13:33:46;53.89;39.96;71.53;;
66589;Laerm;53447;49.272;11.070;2023-09-18T13:36:11;42.51;40.11;53.28;;
66589;Laerm;53447;49.272;11.070;2023-09-18T13:38:36;43.01;39.96;57.55;;
66589;Laerm;53447;49.272;11.070;2023-09-18T13:41:01;52.35;40.18;70.30;;
66589;Laerm;53447;49.272;11.070;2023-09-18T13:43:30;52.15;40.39;70.80;;
66589;Laerm;53447;49.272;11.070;2023-09-18T13:45:59;45.67;42.13;60.59;;
66589;Laerm;53447;49.272;11.070;2023-09-18T13:48:24;46.48;42.40;64.10;;
66589;Laerm;53447;49.272;11.070;2023-09-18T13:50:51;48.47;43.57;62.43;;
66589;Laerm;53447;49.272;11.070;2023-09-18T13:53:17;46.61;42.77;57.40;;
66589;Laerm;53447;49.272;11.070;2023-09-18T13:55:43;46.23;42.22;57.42;;